PWSweather.com
Personal Weather Stations
Station Observations
BWSWX1
Teesside, BillinghamGB TS23 1DL

TeessideBillinghamGB TS23 1DL

Lat: 54.588219, Lon: -1.289528

Elevation: 39

Station Type: Davis Vantage Pro2 Plus

http://billinghamweather.com/index.php

Latest ConditionsUpdated 10:00:01 PM GMT Saturday, Feb 23, 2019
Currently Today's Max Today's Min Today's Average
Temperature 52.1°F11.2°C 58.3°F14.6°C 42.6°F5.9°C 50.7°F10.4°C
Dew Point 47.4°F8.6°C 49.0°F9.4°C 39.9°F4.4°C 45.2°F7.3°C
Winds 1.2 mph WSW1.9 kmh WSW 8.1 mph -13.0 kmh - - 1.6 mph 2.6 kmh
Wind Gusts 3.5 mph5.6 kmh 11.5 mph18.5 kmh - -
Humidity 84% 91% 70% 82%
Pressure 30.47 in1031.8 mb 30.47 in1031.8 mb 30.37 in1028.4 mb -
Hour Temp Dew Point Humidity Winds Wind Gusts Pressure Precip Precip Rate Daily Precip Total
10:00 PM 52.1°F11.2°C 47.4°F8.6°C 84% 1.2 mph WSW1.9 kmh WSW 3.5 mph5.6 kmh 30.47 in1031.8 mb - 0.00 in0.0 mm 0.00 in0.0 mm
09:50 PM 52.3°F11.3°C 47.6°F8.7°C 84% Calm Calm 3.5 mph5.6 kmh 30.46 in1031.5 mb - 0.00 in0.0 mm 0.00 in0.0 mm
09:40 PM 52.5°F11.4°C 47.5°F8.6°C 83% Calm Calm 2.3 mph3.7 kmh 30.46 in1031.5 mb - 0.00 in0.0 mm 0.00 in0.0 mm
09:30 PM 52.8°F11.6°C 47.8°F8.8°C 83% Calm Calm -- 30.45 in1031.2 mb - 0.00 in0.0 mm 0.00 in0.0 mm
09:20 PM 53.0°F11.7°C 48.0°F8.9°C 83% 1.2 mph WSW1.9 kmh WSW 2.3 mph3.7 kmh 30.45 in1031.2 mb - 0.00 in0.0 mm 0.00 in0.0 mm
09:10 PM 53.2°F11.8°C 48.2°F9.0°C 83% Calm Calm -- 30.45 in1031.2 mb - 0.00 in0.0 mm 0.00 in0.0 mm
09:00 PM 53.4°F11.9°C 48.0°F8.9°C 82% 2.3 mph WSW3.7 kmh WSW 3.5 mph5.6 kmh 30.45 in1031.2 mb - 0.00 in0.0 mm 0.00 in0.0 mm
08:50 PM 53.6°F12.0°C 48.6°F9.2°C 83% Calm Calm 3.5 mph5.6 kmh 30.45 in1031.2 mb - 0.00 in0.0 mm 0.00 in0.0 mm
08:40 PM 53.8°F12.1°C 48.4°F9.1°C 82% 1.2 mph SW1.9 kmh SW 3.5 mph5.6 kmh 30.45 in1031.2 mb - 0.00 in0.0 mm 0.00 in0.0 mm
08:30 PM 54.1°F12.3°C 48.4°F9.1°C 81% 2.3 mph WSW3.7 kmh WSW 5.8 mph9.3 kmh 30.45 in1031.2 mb - 0.00 in0.0 mm 0.00 in0.0 mm
08:20 PM 54.4°F12.4°C 48.7°F9.3°C 81% 1.2 mph SW1.9 kmh SW 5.8 mph9.3 kmh 30.45 in1031.2 mb - 0.00 in0.0 mm 0.00 in0.0 mm
08:10 PM 54.5°F12.5°C 48.8°F9.3°C 81% 2.3 mph SW3.7 kmh SW 3.5 mph5.6 kmh 30.45 in1031.2 mb - 0.00 in0.0 mm 0.00 in0.0 mm
08:00 PM 54.4°F12.4°C 48.7°F9.3°C 81% 2.3 mph WSW3.7 kmh WSW 8.1 mph13.0 kmh 30.45 in1031.2 mb - 0.00 in0.0 mm 0.00 in0.0 mm
07:50 PM 54.3°F12.4°C 48.6°F9.2°C 81% 3.5 mph WSW5.6 kmh WSW 6.9 mph11.1 kmh 30.44 in1030.8 mb - 0.00 in0.0 mm 0.00 in0.0 mm
07:40 PM 54.2°F12.3°C 48.5°F9.2°C 81% 1.2 mph SW1.9 kmh SW 5.8 mph9.3 kmh 30.43 in1030.5 mb - 0.00 in0.0 mm 0.00 in0.0 mm
07:30 PM 54.1°F12.3°C 48.4°F9.1°C 81% 1.2 mph S1.9 kmh S 3.5 mph5.6 kmh 30.43 in1030.5 mb - 0.00 in0.0 mm 0.00 in0.0 mm
07:20 PM 54.2°F12.3°C 48.5°F9.2°C 81% 2.3 mph SW3.7 kmh SW 4.6 mph7.4 kmh 30.43 in1030.5 mb - 0.00 in0.0 mm 0.00 in0.0 mm
07:10 PM 54.2°F12.3°C 48.5°F9.2°C 81% 2.3 mph S3.7 kmh S 5.8 mph9.3 kmh 30.42 in1030.1 mb - 0.00 in0.0 mm 0.00 in0.0 mm
07:00 PM 54.3°F12.4°C 48.6°F9.2°C 81% 1.2 mph SW1.9 kmh SW 2.3 mph3.7 kmh 30.43 in1030.5 mb - 0.00 in0.0 mm 0.00 in0.0 mm
06:50 PM 54.4°F12.4°C 48.4°F9.1°C 80% 1.2 mph SW1.9 kmh SW 2.3 mph3.7 kmh 30.43 in1030.5 mb - 0.00 in0.0 mm 0.00 in0.0 mm
06:40 PM 54.6°F12.6°C 48.6°F9.2°C 80% Calm Calm 1.2 mph1.9 kmh 30.43 in1030.5 mb - 0.00 in0.0 mm 0.00 in0.0 mm
06:30 PM 54.7°F12.6°C 48.6°F9.2°C 80% 3.5 mph S5.6 kmh S 8.1 mph13.0 kmh 30.42 in1030.1 mb - 0.00 in0.0 mm 0.00 in0.0 mm
06:20 PM 54.7°F12.6°C 48.6°F9.2°C 80% 2.3 mph SSW3.7 kmh SSW 4.6 mph7.4 kmh 30.42 in1030.1 mb - 0.00 in0.0 mm 0.00 in0.0 mm
06:10 PM 54.7°F12.6°C 48.6°F9.2°C 80% 2.3 mph SSW3.7 kmh SSW 9.2 mph14.8 kmh 30.41 in1029.8 mb - 0.00 in0.0 mm 0.00 in0.0 mm
06:00 PM 54.5°F12.5°C 48.1°F8.9°C 79% 3.5 mph SSW5.6 kmh SSW 9.2 mph14.8 kmh 30.41 in1029.8 mb - 0.00 in0.0 mm 0.00 in0.0 mm
05:50 PM 54.5°F12.5°C 47.7°F8.7°C 78% 1.2 mph S1.9 kmh S 3.5 mph5.6 kmh 30.41 in1029.8 mb - 0.00 in0.0 mm 0.00 in0.0 mm
05:40 PM 54.9°F12.7°C 47.8°F8.8°C 77% Calm Calm -- 30.41 in1029.8 mb - 0.00 in0.0 mm 0.00 in0.0 mm
05:30 PM 55.1°F12.8°C 48.0°F8.9°C 77% Calm Calm -- 30.41 in1029.8 mb - 0.00 in0.0 mm 0.00 in0.0 mm
05:20 PM 55.3°F12.9°C 48.2°F9.0°C 77% Calm Calm -- 30.40 in1029.5 mb - 0.00 in0.0 mm 0.00 in0.0 mm
05:10 PM 55.4°F13.0°C 48.4°F9.1°C 77% Calm Calm -- 30.40 in1029.5 mb - 0.00 in0.0 mm 0.00 in0.0 mm
05:00 PM 55.5°F13.1°C 48.5°F9.2°C 77% Calm Calm -- 30.39 in1029.1 mb - 0.00 in0.0 mm 0.00 in0.0 mm
04:50 PM 55.7°F13.2°C 48.6°F9.2°C 77% 2.3 mph S3.7 kmh S 4.6 mph7.4 kmh 30.38 in1028.8 mb - 0.00 in0.0 mm 0.00 in0.0 mm
04:40 PM 55.8°F13.2°C 48.7°F9.3°C 77% 1.2 mph SSE1.9 kmh SSE 5.8 mph9.3 kmh 30.37 in1028.4 mb - 0.00 in0.0 mm 0.00 in0.0 mm
04:30 PM 55.9°F13.3°C 48.4°F9.1°C 76% 2.3 mph SSE3.7 kmh SSE 4.6 mph7.4 kmh 30.37 in1028.4 mb - 0.00 in0.0 mm 0.00 in0.0 mm
04:20 PM 56.0°F13.3°C 48.5°F9.2°C 76% Calm Calm 2.3 mph3.7 kmh 30.38 in1028.8 mb - 0.00 in0.0 mm 0.00 in0.0 mm
04:10 PM 56.1°F13.4°C 48.6°F9.2°C 76% 2.3 mph S3.7 kmh S 6.9 mph11.1 kmh 30.37 in1028.4 mb - 0.00 in0.0 mm 0.00 in0.0 mm
04:00 PM 56.3°F13.5°C 48.8°F9.3°C 76% 3.5 mph S5.6 kmh S 9.2 mph14.8 kmh 30.37 in1028.4 mb - 0.00 in0.0 mm 0.00 in0.0 mm
03:50 PM 56.6°F13.7°C 48.8°F9.3°C 75% 4.6 mph SSW7.4 kmh SSW 9.2 mph14.8 kmh 30.37 in1028.4 mb - 0.00 in0.0 mm 0.00 in0.0 mm
03:40 PM 57.0°F13.9°C 48.8°F9.3°C 74% 3.5 mph S5.6 kmh S 6.9 mph11.1 kmh 30.37 in1028.4 mb - 0.00 in0.0 mm 0.00 in0.0 mm
03:30 PM 57.5°F14.2°C 48.9°F9.4°C 73% 3.5 mph S5.6 kmh S 4.6 mph7.4 kmh 30.37 in1028.4 mb - 0.00 in0.0 mm 0.00 in0.0 mm
03:20 PM 57.9°F14.4°C 48.9°F9.4°C 72% 4.6 mph SSE7.4 kmh SSE 10.4 mph16.7 kmh 30.37 in1028.4 mb - 0.00 in0.0 mm 0.00 in0.0 mm
03:10 PM 58.0°F14.4°C 49.0°F9.4°C 72% 3.5 mph S5.6 kmh S 5.8 mph9.3 kmh 30.37 in1028.4 mb - 0.00 in0.0 mm 0.00 in0.0 mm
03:00 PM 57.8°F14.3°C 48.5°F9.2°C 71% 8.1 mph S13.0 kmh S 11.5 mph18.5 kmh 30.37 in1028.4 mb - 0.00 in0.0 mm 0.00 in0.0 mm
02:50 PM 58.3°F14.6°C 48.9°F9.4°C 71% 2.3 mph S3.7 kmh S 8.1 mph13.0 kmh 30.37 in1028.4 mb - 0.00 in0.0 mm 0.00 in0.0 mm
02:40 PM 58.2°F14.6°C 48.9°F9.4°C 71% 1.2 mph S1.9 kmh S 3.5 mph5.6 kmh 30.37 in1028.4 mb - 0.00 in0.0 mm 0.00 in0.0 mm
02:30 PM 58.1°F14.5°C 48.7°F9.3°C 71% 2.3 mph WSW3.7 kmh WSW 4.6 mph7.4 kmh 30.37 in1028.4 mb - 0.00 in0.0 mm 0.00 in0.0 mm
02:20 PM 58.0°F14.4°C 48.6°F9.2°C 71% 1.2 mph SSW1.9 kmh SSW 4.6 mph7.4 kmh 30.37 in1028.4 mb - 0.00 in0.0 mm 0.00 in0.0 mm
02:10 PM 57.7°F14.3°C 48.4°F9.1°C 71% 2.3 mph SW3.7 kmh SW 6.9 mph11.1 kmh 30.37 in1028.4 mb - 0.00 in0.0 mm 0.00 in0.0 mm
02:00 PM 57.8°F14.3°C 48.1°F8.9°C 70% 4.6 mph SW7.4 kmh SW 6.9 mph11.1 kmh 30.37 in1028.4 mb - 0.00 in0.0 mm 0.00 in0.0 mm
01:50 PM 57.9°F14.4°C 48.1°F8.9°C 70% 2.3 mph S3.7 kmh S 6.9 mph11.1 kmh 30.37 in1028.4 mb - 0.00 in0.0 mm 0.00 in0.0 mm
01:40 PM 57.2°F14.0°C 48.2°F9.0°C 72% 3.5 mph S5.6 kmh S 4.6 mph7.4 kmh 30.37 in1028.4 mb - 0.00 in0.0 mm 0.00 in0.0 mm
01:30 PM 56.7°F13.7°C 47.8°F8.8°C 72% 6.9 mph S11.1 kmh S 11.5 mph18.5 kmh 30.37 in1028.4 mb - 0.00 in0.0 mm 0.00 in0.0 mm
01:20 PM 56.0°F13.3°C 47.5°F8.6°C 73% 4.6 mph S7.4 kmh S 11.5 mph18.5 kmh 30.38 in1028.8 mb - 0.00 in0.0 mm 0.00 in0.0 mm
01:10 PM 55.5°F13.1°C 46.6°F8.1°C 72% 2.3 mph S3.7 kmh S 5.8 mph9.3 kmh 30.38 in1028.8 mb - 0.00 in0.0 mm 0.00 in0.0 mm
01:00 PM 55.2°F12.9°C 46.7°F8.2°C 73% 4.6 mph SSW7.4 kmh SSW 11.5 mph18.5 kmh 30.38 in1028.8 mb - 0.00 in0.0 mm 0.00 in0.0 mm
12:50 PM 54.8°F12.7°C 46.7°F8.2°C 74% 1.2 mph S1.9 kmh S 8.1 mph13.0 kmh 30.38 in1028.8 mb - 0.00 in0.0 mm 0.00 in0.0 mm
12:40 PM 54.6°F12.6°C 46.5°F8.1°C 74% 3.5 mph SW5.6 kmh SW 10.4 mph16.7 kmh 30.39 in1029.1 mb - 0.00 in0.0 mm 0.00 in0.0 mm
12:30 PM 54.5°F12.5°C 46.4°F8.0°C 74% 4.6 mph SW7.4 kmh SW 8.1 mph13.0 kmh 30.39 in1029.1 mb - 0.00 in0.0 mm 0.00 in0.0 mm
12:20 PM 53.7°F12.1°C 46.3°F7.9°C 76% 3.5 mph SW5.6 kmh SW 9.2 mph14.8 kmh 30.39 in1029.1 mb - 0.00 in0.0 mm 0.00 in0.0 mm
12:10 PM 53.3°F11.8°C 45.9°F7.7°C 76% 2.3 mph SSW3.7 kmh SSW 6.9 mph11.1 kmh 30.40 in1029.5 mb - 0.00 in0.0 mm 0.00 in0.0 mm
12:00 PM 52.9°F11.6°C 46.2°F7.9°C 78% 3.5 mph WSW5.6 kmh WSW 11.5 mph18.5 kmh 30.40 in1029.5 mb - 0.00 in0.0 mm 0.00 in0.0 mm
11:50 AM 52.4°F11.3°C 45.7°F7.6°C 78% 4.6 mph SSW7.4 kmh SSW 6.9 mph11.1 kmh 30.41 in1029.8 mb - 0.00 in0.0 mm 0.00 in0.0 mm
11:40 AM 51.7°F10.9°C 45.4°F7.4°C 79% 2.3 mph SSW3.7 kmh SSW 4.6 mph7.4 kmh 30.41 in1029.8 mb - 0.00 in0.0 mm 0.00 in0.0 mm
11:30 AM 51.1°F10.6°C 44.8°F7.1°C 79% 2.3 mph WSW3.7 kmh WSW 8.1 mph13.0 kmh 30.41 in1029.8 mb - 0.00 in0.0 mm 0.00 in0.0 mm
11:20 AM 51.1°F10.6°C 45.1°F7.3°C 80% 3.5 mph SW5.6 kmh SW 9.2 mph14.8 kmh 30.41 in1029.8 mb - 0.00 in0.0 mm 0.00 in0.0 mm
11:10 AM 50.8°F10.4°C 45.2°F7.3°C 81% 2.3 mph S3.7 kmh S 5.8 mph9.3 kmh 30.42 in1030.1 mb - 0.00 in0.0 mm 0.00 in0.0 mm
11:00 AM 50.4°F10.2°C 45.1°F7.3°C 82% 2.3 mph WSW3.7 kmh WSW 8.1 mph13.0 kmh 30.42 in1030.1 mb - 0.00 in0.0 mm 0.00 in0.0 mm
10:50 AM 50.1°F10.1°C 44.8°F7.1°C 82% 2.3 mph W3.7 kmh W 3.5 mph5.6 kmh 30.42 in1030.1 mb - 0.00 in0.0 mm 0.00 in0.0 mm
10:40 AM 50.0°F10.0°C 44.7°F7.1°C 82% 3.5 mph WSW5.6 kmh WSW 10.4 mph16.7 kmh 30.42 in1030.1 mb - 0.00 in0.0 mm 0.00 in0.0 mm
10:30 AM 49.6°F9.8°C 44.9°F7.2°C 84% 3.5 mph WSW5.6 kmh WSW 8.1 mph13.0 kmh 30.42 in1030.1 mb - 0.00 in0.0 mm 0.00 in0.0 mm
10:20 AM 49.2°F9.6°C 45.2°F7.3°C 86% 2.3 mph SSW3.7 kmh SSW 3.5 mph5.6 kmh 30.42 in1030.1 mb - 0.00 in0.0 mm 0.00 in0.0 mm
10:10 AM 48.3°F9.1°C 44.9°F7.2°C 88% Calm Calm 3.5 mph5.6 kmh 30.43 in1030.5 mb - 0.00 in0.0 mm 0.00 in0.0 mm
10:00 AM 47.3°F8.5°C 44.2°F6.8°C 89% 1.2 mph SSW1.9 kmh SSW 6.9 mph11.1 kmh 30.43 in1030.5 mb - 0.00 in0.0 mm 0.00 in0.0 mm
09:50 AM 46.4°F8.0°C 43.7°F6.5°C 90% 2.3 mph SW3.7 kmh SW 4.6 mph7.4 kmh 30.43 in1030.5 mb - 0.00 in0.0 mm 0.00 in0.0 mm
09:40 AM 45.8°F7.7°C 43.3°F6.3°C 91% Calm Calm 2.3 mph3.7 kmh 30.43 in1030.5 mb - 0.00 in0.0 mm 0.00 in0.0 mm
09:30 AM 45.3°F7.4°C 42.8°F6.0°C 91% Calm Calm 2.3 mph3.7 kmh 30.43 in1030.5 mb - 0.00 in0.0 mm 0.00 in0.0 mm
09:20 AM 44.7°F7.1°C 42.3°F5.7°C 91% 1.2 mph WSW1.9 kmh WSW 4.6 mph7.4 kmh 30.43 in1030.5 mb - 0.00 in0.0 mm 0.00 in0.0 mm
09:10 AM 44.4°F6.9°C 42.0°F5.6°C 91% 3.5 mph WSW5.6 kmh WSW 5.8 mph9.3 kmh 30.43 in1030.5 mb - 0.00 in0.0 mm 0.00 in0.0 mm
09:00 AM 44.2°F6.8°C 41.7°F5.4°C 91% 2.3 mph WSW3.7 kmh WSW 5.8 mph9.3 kmh 30.43 in1030.5 mb - 0.00 in0.0 mm 0.00 in0.0 mm
08:50 AM 44.1°F6.7°C 41.4°F5.2°C 90% 3.5 mph SW5.6 kmh SW 5.8 mph9.3 kmh 30.43 in1030.5 mb - 0.00 in0.0 mm 0.00 in0.0 mm
08:40 AM 44.0°F6.7°C 41.5°F5.3°C 91% 4.6 mph SW7.4 kmh SW 6.9 mph11.1 kmh 30.44 in1030.8 mb - 0.00 in0.0 mm 0.00 in0.0 mm
08:30 AM 43.8°F6.6°C 41.3°F5.2°C 91% 3.5 mph SW5.6 kmh SW 5.8 mph9.3 kmh 30.44 in1030.8 mb - 0.00 in0.0 mm 0.00 in0.0 mm
08:20 AM 43.3°F6.3°C 40.8°F4.9°C 91% 1.2 mph WSW1.9 kmh WSW 4.6 mph7.4 kmh 30.44 in1030.8 mb - 0.00 in0.0 mm 0.00 in0.0 mm
08:10 AM 42.9°F6.1°C 40.5°F4.7°C 91% 1.2 mph WSW1.9 kmh WSW 2.3 mph3.7 kmh 30.44 in1030.8 mb - 0.00 in0.0 mm 0.00 in0.0 mm
08:00 AM 42.7°F5.9°C 40.3°F4.6°C 91% 2.3 mph WSW3.7 kmh WSW 4.6 mph7.4 kmh 30.44 in1030.8 mb - 0.00 in0.0 mm 0.00 in0.0 mm
07:50 AM 42.7°F5.9°C 40.0°F4.4°C 90% 2.3 mph WSW3.7 kmh WSW 4.6 mph7.4 kmh 30.44 in1030.8 mb - 0.00 in0.0 mm 0.00 in0.0 mm
07:40 AM 42.8°F6.0°C 40.1°F4.5°C 90% 2.3 mph WSW3.7 kmh WSW 3.5 mph5.6 kmh 30.44 in1030.8 mb - 0.00 in0.0 mm 0.00 in0.0 mm
07:30 AM 42.8°F6.0°C 40.1°F4.5°C 90% 1.2 mph WSW1.9 kmh WSW 3.5 mph5.6 kmh 30.43 in1030.5 mb - 0.00 in0.0 mm 0.00 in0.0 mm
07:20 AM 42.6°F5.9°C 39.9°F4.4°C 90% 2.3 mph WSW3.7 kmh WSW 3.5 mph5.6 kmh 30.43 in1030.5 mb - 0.00 in0.0 mm 0.00 in0.0 mm
07:10 AM 42.9°F6.1°C 40.2°F4.6°C 90% Calm Calm -- 30.43 in1030.5 mb - 0.00 in0.0 mm 0.00 in0.0 mm
07:00 AM 43.2°F6.2°C 40.2°F4.6°C 89% Calm Calm -- 30.42 in1030.1 mb - 0.00 in0.0 mm 0.00 in0.0 mm
06:50 AM 43.3°F6.3°C 40.6°F4.8°C 90% Calm Calm -- 30.42 in1030.1 mb - 0.00 in0.0 mm 0.00 in0.0 mm
06:40 AM 43.6°F6.4°C 40.9°F4.9°C 90% Calm Calm -- 30.42 in1030.1 mb - 0.00 in0.0 mm 0.00 in0.0 mm
06:30 AM 43.8°F6.6°C 40.8°F4.9°C 89% Calm Calm -- 30.42 in1030.1 mb - 0.00 in0.0 mm 0.00 in0.0 mm
06:20 AM 44.0°F6.7°C 41.3°F5.2°C 90% Calm Calm -- 30.42 in1030.1 mb - 0.00 in0.0 mm 0.00 in0.0 mm
06:10 AM 44.3°F6.8°C 41.3°F5.2°C 89% Calm Calm 3.5 mph5.6 kmh 30.43 in1030.5 mb - 0.00 in0.0 mm 0.00 in0.0 mm
06:00 AM 44.6°F7.0°C 41.6°F5.3°C 89% 2.3 mph SW3.7 kmh SW 4.6 mph7.4 kmh 30.43 in1030.5 mb - 0.00 in0.0 mm 0.00 in0.0 mm
05:50 AM 44.9°F7.2°C 41.9°F5.5°C 89% 3.5 mph WSW5.6 kmh WSW 6.9 mph11.1 kmh 30.43 in1030.5 mb - 0.00 in0.0 mm 0.00 in0.0 mm
05:40 AM 45.1°F7.3°C 42.1°F5.6°C 89% 2.3 mph SW3.7 kmh SW 4.6 mph7.4 kmh 30.43 in1030.5 mb - 0.00 in0.0 mm 0.00 in0.0 mm
05:30 AM 45.3°F7.4°C 42.0°F5.6°C 88% Calm Calm 2.3 mph3.7 kmh 30.43 in1030.5 mb - 0.00 in0.0 mm 0.00 in0.0 mm
05:20 AM 45.4°F7.4°C 42.1°F5.6°C 88% Calm Calm -- 30.43 in1030.5 mb - 0.00 in0.0 mm 0.00 in0.0 mm
05:10 AM 45.5°F7.5°C 42.2°F5.7°C 88% Calm Calm 1.2 mph1.9 kmh 30.43 in1030.5 mb - 0.00 in0.0 mm 0.00 in0.0 mm
05:00 AM 45.6°F7.6°C 42.0°F5.6°C 87% Calm Calm -- 30.43 in1030.5 mb - 0.00 in0.0 mm 0.00 in0.0 mm
04:50 AM 45.7°F7.6°C 42.1°F5.6°C 87% Calm Calm -- 30.42 in1030.1 mb - 0.00 in0.0 mm 0.00 in0.0 mm
04:40 AM 45.8°F7.7°C 42.2°F5.7°C 87% Calm Calm -- 30.42 in1030.1 mb - 0.00 in0.0 mm 0.00 in0.0 mm
04:30 AM 45.9°F7.7°C 42.2°F5.7°C 87% Calm Calm 1.2 mph1.9 kmh 30.42 in1030.1 mb - 0.00 in0.0 mm 0.00 in0.0 mm
04:20 AM 45.9°F7.7°C 42.2°F5.7°C 87% Calm Calm -- 30.42 in1030.1 mb - 0.00 in0.0 mm 0.00 in0.0 mm
04:10 AM 45.9°F7.7°C 41.9°F5.5°C 86% 1.2 mph S1.9 kmh S 2.3 mph3.7 kmh 30.42 in1030.1 mb - 0.00 in0.0 mm 0.00 in0.0 mm
04:00 AM 45.8°F7.7°C 41.9°F5.5°C 86% Calm Calm 3.5 mph5.6 kmh 30.43 in1030.5 mb - 0.00 in0.0 mm 0.00 in0.0 mm
03:50 AM 45.8°F7.7°C 41.9°F5.5°C 86% 1.2 mph SE1.9 kmh SE 2.3 mph3.7 kmh 30.43 in1030.5 mb - 0.00 in0.0 mm 0.00 in0.0 mm
03:40 AM 45.9°F7.7°C 41.6°F5.3°C 85% Calm Calm -- 30.43 in1030.5 mb - 0.00 in0.0 mm 0.00 in0.0 mm
03:30 AM 46.1°F7.8°C 41.5°F5.3°C 84% Calm Calm -- 30.43 in1030.5 mb - 0.00 in0.0 mm 0.00 in0.0 mm
03:20 AM 46.4°F8.0°C 41.8°F5.4°C 84% Calm Calm -- 30.43 in1030.5 mb - 0.00 in0.0 mm 0.00 in0.0 mm
03:10 AM 46.7°F8.2°C 42.1°F5.6°C 84% Calm Calm -- 30.43 in1030.5 mb - 0.00 in0.0 mm 0.00 in0.0 mm
03:00 AM 47.0°F8.3°C 42.1°F5.6°C 83% Calm Calm -- 30.43 in1030.5 mb - 0.00 in0.0 mm 0.00 in0.0 mm
02:50 AM 47.4°F8.6°C 42.5°F5.8°C 83% Calm Calm -- 30.43 in1030.5 mb - 0.00 in0.0 mm 0.00 in0.0 mm
02:40 AM 47.8°F8.8°C 42.8°F6.0°C 83% Calm Calm -- 30.43 in1030.5 mb - 0.00 in0.0 mm 0.00 in0.0 mm
02:30 AM 48.0°F8.9°C 43.1°F6.2°C 83% Calm Calm -- 30.44 in1030.8 mb - 0.00 in0.0 mm 0.00 in0.0 mm
02:20 AM 48.2°F9.0°C 43.3°F6.3°C 83% Calm Calm -- 30.44 in1030.8 mb - 0.00 in0.0 mm 0.00 in0.0 mm
02:10 AM 48.4°F9.1°C 43.5°F6.4°C 83% Calm Calm 2.3 mph3.7 kmh 30.44 in1030.8 mb - 0.00 in0.0 mm 0.00 in0.0 mm
02:00 AM 48.5°F9.2°C 43.3°F6.3°C 82% Calm Calm -- 30.44 in1030.8 mb - 0.00 in0.0 mm 0.00 in0.0 mm
01:50 AM 48.6°F9.2°C 43.4°F6.3°C 82% Calm Calm 1.2 mph1.9 kmh 30.45 in1031.2 mb - 0.00 in0.0 mm 0.00 in0.0 mm
01:40 AM 48.8°F9.3°C 42.9°F6.1°C 80% Calm Calm 2.3 mph3.7 kmh 30.45 in1031.2 mb - 0.00 in0.0 mm 0.00 in0.0 mm
01:30 AM 49.2°F9.6°C 43.0°F6.1°C 79% Calm Calm -- 30.45 in1031.2 mb - 0.00 in0.0 mm 0.00 in0.0 mm
01:20 AM 49.6°F9.8°C 43.4°F6.3°C 79% Calm Calm -- 30.45 in1031.2 mb - 0.00 in0.0 mm 0.00 in0.0 mm
01:10 AM 49.9°F9.9°C 43.7°F6.5°C 79% Calm Calm -- 30.45 in1031.2 mb - 0.00 in0.0 mm 0.00 in0.0 mm
01:00 AM 50.3°F10.2°C 43.7°F6.5°C 78% Calm Calm -- 30.45 in1031.2 mb - 0.00 in0.0 mm 0.00 in0.0 mm
12:50 AM 50.6°F10.3°C 43.7°F6.5°C 77% Calm Calm -- 30.45 in1031.2 mb - 0.00 in0.0 mm 0.00 in0.0 mm
12:40 AM 51.0°F10.6°C 44.1°F6.7°C 77% Calm Calm -- 30.45 in1031.2 mb - 0.00 in0.0 mm 0.00 in0.0 mm
12:30 AM 51.5°F10.8°C 44.2°F6.8°C 76% Calm Calm 2.3 mph3.7 kmh 30.45 in1031.2 mb - 0.00 in0.0 mm 0.00 in0.0 mm
12:20 AM 52.0°F11.1°C 44.7°F7.1°C 76% Calm Calm -- 30.45 in1031.2 mb - 0.00 in0.0 mm 0.00 in0.0 mm
12:10 AM 52.4°F11.3°C 44.7°F7.1°C 75% Calm Calm 3.5 mph5.6 kmh 30.45 in1031.2 mb - 0.00 in0.0 mm 0.00 in0.0 mm
12:00 AM 52.7°F11.5°C 45.0°F7.2°C 75% Calm Calm -- 30.45 in1031.2 mb - 0.00 in0.0 mm 0.00 in0.0 mm